createdAt,value
2022-12-27T00:01:20.157Z,80.30
2022-12-27T00:04:24.320Z,80.41
2022-12-27T00:07:20.354Z,80.32
2022-12-27T00:10:12.412Z,80.58
2022-12-27T00:13:04.308Z,80.53
2022-12-27T00:18:32.362Z,80.13
2022-12-27T00:21:24.250Z,80.29
2022-12-27T00:24:16.243Z,80.33
2022-12-27T00:27:08.066Z,80.38
2022-12-27T00:29:59.927Z,80.26
2022-12-27T00:35:27.595Z,80.35
2022-12-27T00:39:27.848Z,80.33
2022-12-27T00:42:22.171Z,80.24
2022-12-27T00:45:14.403Z,80.11
2022-12-27T00:48:10.402Z,80.05
2022-12-27T00:51:17.653Z,80.10
2022-12-27T00:54:25.033Z,80.02
2022-12-27T00:57:17.014Z,79.90
2022-12-27T01:00:10.585Z,80.09
2022-12-27T01:03:02.685Z,79.86
2022-12-27T01:08:30.311Z,79.86
2022-12-27T01:11:22.473Z,79.75
2022-12-27T01:14:14.343Z,79.68
2022-12-27T01:17:06.056Z,79.50
2022-12-27T01:19:58.173Z,79.69
2022-12-27T01:22:50.906Z,79.55
2022-12-27T01:25:42.861Z,79.56
2022-12-27T01:28:35.559Z,79.71
2022-12-27T01:31:28.507Z,79.94
2022-12-27T01:34:21.344Z,79.99
2022-12-27T01:37:13.288Z,80.01
2022-12-27T01:40:05.954Z,80.24
2022-12-27T01:42:58.107Z,80.23
2022-12-27T01:47:36.785Z,80.42
2022-12-27T01:50:45.544Z,80.36
2022-12-27T01:53:44.221Z,80.45
2022-12-27T01:56:36.283Z,80.46
2022-12-27T01:59:28.756Z,80.61
2022-12-27T02:02:38.769Z,80.57
2022-12-27T02:05:41.927Z,80.34
2022-12-27T02:08:55.891Z,80.28
2022-12-27T02:11:51.994Z,80.40
2022-12-27T02:14:47.591Z,80.43
2022-12-27T02:19:42.218Z,80.46
2022-12-27T02:23:08.396Z,80.39
2022-12-27T02:26:29.847Z,80.59
2022-12-27T02:29:47.218Z,80.64
2022-12-27T02:33:01.029Z,80.77
2022-12-27T02:35:58.240Z,80.97
2022-12-27T02:38:54.117Z,81.01
2022-12-27T02:42:06.486Z,81.06
2022-12-27T02:45:18.022Z,81.06
2022-12-27T02:50:18.205Z,81.11
2022-12-27T02:53:41.230Z,80.94
2022-12-27T02:57:00.527Z,81.13
2022-12-27T03:00:26.271Z,81.01
2022-12-27T03:04:03.333Z,81.18
2022-12-27T03:07:17.640Z,81.57
2022-12-27T03:10:54.602Z,81.70
2022-12-27T03:14:24.878Z,81.77
2022-12-27T03:17:34.245Z,81.63
2022-12-27T03:20:44.856Z,81.44
2022-12-27T03:24:00.119Z,81.24
2022-12-27T03:26:54.537Z,81.28
2022-12-27T03:30:08.505Z,81.14
2022-12-27T03:34:40.159Z,81.32
2022-12-27T03:37:54.530Z,81.15
2022-12-27T03:41:16.278Z,80.80
2022-12-27T03:44:24.262Z,80.78
2022-12-27T03:47:48.976Z,80.83
2022-12-27T03:51:05.352Z,80.84
2022-12-27T03:54:06.607Z,80.67
2022-12-27T03:57:02.238Z,80.61
2022-12-27T03:59:53.984Z,80.46
2022-12-27T04:04:40.754Z,80.51
2022-12-27T04:07:32.520Z,80.54
2022-12-27T04:10:42.865Z,80.38
2022-12-27T04:13:53.720Z,80.68
2022-12-27T04:17:04.732Z,80.62
2022-12-27T04:20:23.839Z,80.63
2022-12-27T04:23:34.660Z,80.68
2022-12-27T04:26:40.734Z,80.72
2022-12-27T04:29:51.577Z,80.65
2022-12-27T04:32:57.343Z,80.49
2022-12-27T04:35:49.444Z,80.45
2022-12-27T04:38:41.471Z,80.49
2022-12-27T04:41:52.173Z,80.50
2022-12-27T04:44:44.058Z,80.34
2022-12-27T04:47:54.440Z,80.39
2022-12-27T04:51:05.427Z,80.54
2022-12-27T04:54:16.053Z,80.44
2022-12-27T04:57:31.849Z,80.57
2022-12-27T05:00:47.055Z,80.52
2022-12-27T05:03:40.201Z,80.48
2022-12-27T05:06:32.140Z,80.71
2022-12-27T05:09:43.527Z,80.49
2022-12-27T05:14:14.931Z,80.62
2022-12-27T05:17:06.845Z,80.90
2022-12-27T05:20:02.557Z,80.80
2022-12-27T05:23:07.984Z,80.92
2022-12-27T05:25:55.116Z,80.79
2022-12-27T05:28:47.659Z,80.34
2022-12-27T05:31:39.872Z,79.97
2022-12-27T05:34:31.656Z,79.87
2022-12-27T05:37:23.677Z,79.18
2022-12-27T05:40:11.329Z,79.13
2022-12-27T05:43:04.536Z,79.06
2022-12-27T05:46:02.616Z,78.91
2022-12-27T05:48:54.279Z,78.93
2022-12-27T05:51:46.030Z,79.08
2022-12-27T05:54:37.960Z,79.03
2022-12-27T05:57:29.995Z,78.82
2022-12-27T06:00:21.745Z,78.67
2022-12-27T06:03:08.552Z,78.77
2022-12-27T06:06:02.640Z,78.67
2022-12-27T06:08:55.064Z,78.50
2022-12-27T06:11:47.233Z,78.72
2022-12-27T06:14:39.403Z,78.64
2022-12-27T06:17:31.335Z,78.66
2022-12-27T06:20:23.236Z,78.93
2022-12-27T06:23:15.132Z,78.92
2022-12-27T06:26:11.433Z,78.96
2022-12-27T06:28:59.152Z,78.75
2022-12-27T06:31:46.988Z,78.67
2022-12-27T06:34:42.723Z,78.57
2022-12-27T06:37:34.831Z,78.57
2022-12-27T06:42:03.118Z,78.69
2022-12-27T06:46:16.784Z,78.72
2022-12-27T06:50:22.047Z,78.67
2022-12-27T06:53:14.583Z,78.78
2022-12-27T06:56:09.865Z,78.76
2022-12-27T06:59:01.778Z,78.76
2022-12-27T07:01:53.827Z,78.86
2022-12-27T07:04:46.337Z,78.91
2022-12-27T07:07:38.677Z,78.85
2022-12-27T07:10:30.968Z,78.80
2022-12-27T07:13:23.368Z,78.86
2022-12-27T07:16:18.519Z,78.71
2022-12-27T07:19:10.505Z,78.93
2022-12-27T07:22:02.981Z,78.98
2022-12-27T07:24:55.172Z,78.83
2022-12-27T07:29:14.917Z,78.73
2022-12-27T07:33:18.792Z,78.58
2022-12-27T07:36:15.098Z,78.70
2022-12-27T07:39:07.888Z,78.53
2022-12-27T07:42:06.268Z,78.25
2022-12-27T07:45:03.005Z,78.23
2022-12-27T07:47:55.900Z,78.38
2022-12-27T07:50:58.313Z,78.50
2022-12-27T07:53:51.325Z,78.28
2022-12-27T07:56:43.443Z,78.29
2022-12-27T08:02:24.503Z,78.28
2022-12-27T08:06:01.973Z,78.16
2022-12-27T08:08:54.317Z,77.94
2022-12-27T08:11:41.226Z,78.04
2022-12-27T08:14:33.243Z,77.88
2022-12-27T08:17:30.115Z,77.66
2022-12-27T08:20:39.971Z,77.57
2022-12-27T08:24:44.000Z,77.79
2022-12-27T08:28:48.000Z,77.57
2022-12-27T08:32:51.581Z,77.58
2022-12-27T08:35:54.386Z,77.17
2022-12-27T08:38:46.494Z,77.24
2022-12-27T08:41:38.965Z,77.58
2022-12-27T08:44:31.099Z,76.72
2022-12-27T08:49:58.717Z,74.83
2022-12-27T08:52:50.950Z,75.17
2022-12-27T08:55:43.199Z,73.69
2022-12-27T08:58:35.277Z,74.53
2022-12-27T09:01:27.175Z,75.10
2022-12-27T09:04:19.610Z,73.45
2022-12-27T09:07:11.553Z,73.31
2022-12-27T09:10:04.038Z,72.67
2022-12-27T09:12:55.747Z,69.43
2022-12-27T09:15:47.490Z,69.84
2022-12-27T09:18:40.828Z,67.58
2022-12-27T09:21:34.164Z,66.60
2022-12-27T09:24:26.387Z,63.34
2022-12-27T09:28:49.824Z,58.99
2022-12-27T09:32:53.487Z,63.09
2022-12-27T09:35:45.603Z,64.47
2022-12-27T09:38:37.966Z,61.88
2022-12-27T09:42:44.531Z,60.05
2022-12-27T09:44:58.284Z,61.33
2022-12-27T09:49:38.325Z,61.66
2022-12-27T09:53:22.001Z,61.96
2022-12-27T09:57:35.944Z,63.69
2022-12-27T10:00:34.419Z,62.17
2022-12-27T10:03:29.935Z,64.02
2022-12-27T10:06:44.721Z,64.57
2022-12-27T10:12:20.562Z,64.63
2022-12-27T10:15:31.826Z,62.59
2022-12-27T10:18:47.798Z,62.05
2022-12-27T10:21:55.103Z,60.48
2022-12-27T10:24:50.336Z,63.59
2022-12-27T10:27:42.425Z,59.51
2022-12-27T10:30:34.283Z,59.24
2022-12-27T10:33:32.594Z,60.16
2022-12-27T10:36:30.940Z,61.22
2022-12-27T10:39:32.357Z,59.65
2022-12-27T10:42:35.458Z,58.09
2022-12-27T10:45:33.839Z,59.25
2022-12-27T10:48:47.391Z,58.16
2022-12-27T10:53:37.385Z,54.56
2022-12-27T10:56:29.488Z,56.15
2022-12-27T10:59:21.993Z,55.71
2022-12-27T11:02:19.286Z,55.90
2022-12-27T11:05:22.700Z,55.91
2022-12-27T11:08:30.014Z,56.27
2022-12-27T11:12:36.196Z,57.88
2022-12-27T11:15:31.424Z,56.71
2022-12-27T11:18:23.700Z,57.98
2022-12-27T11:21:25.601Z,57.37
2022-12-27T11:24:33.173Z,57.35
2022-12-27T11:27:28.101Z,57.56
2022-12-27T11:30:38.717Z,57.90
2022-12-27T11:33:39.899Z,56.97
2022-12-27T11:36:34.423Z,56.70
2022-12-27T11:41:42.670Z,58.13
2022-12-27T11:45:51.059Z,58.11
2022-12-27T11:50:13.157Z,58.60
2022-12-27T11:53:43.378Z,58.76
2022-12-27T11:56:39.028Z,57.85
2022-12-27T12:00:02.202Z,54.20
2022-12-27T12:03:16.063Z,56.11
2022-12-27T12:06:21.690Z,54.72
2022-12-27T12:09:34.895Z,55.58
2022-12-27T12:12:52.511Z,52.19
2022-12-27T12:15:47.939Z,53.19
2022-12-27T12:20:28.195Z,53.69
2022-12-27T12:25:22.124Z,52.94
2022-12-27T12:28:58.284Z,54.09
2022-12-27T12:32:17.381Z,53.15
2022-12-27T12:35:40.400Z,53.37
2022-12-27T12:38:53.843Z,52.98
2022-12-27T12:42:02.320Z,54.11
2022-12-27T12:46:44.876Z,55.04
2022-12-27T12:49:53.162Z,53.98
2022-12-27T12:52:57.523Z,54.14
2022-12-27T12:56:15.163Z,53.89
2022-12-27T12:59:27.253Z,54.84
2022-12-27T13:02:31.427Z,55.03
2022-12-27T13:05:59.020Z,55.87
2022-12-27T13:09:22.637Z,56.33
2022-12-27T13:12:29.107Z,56.78
2022-12-27T13:15:41.467Z,56.63
2022-12-27T13:19:13.069Z,56.98
2022-12-27T13:22:11.037Z,57.48
2022-12-27T13:25:11.164Z,57.45
2022-12-27T13:28:37.730Z,57.74
2022-12-27T13:33:51.895Z,57.77
2022-12-27T13:37:32.671Z,57.91
2022-12-27T13:42:13.474Z,58.35
2022-12-27T13:45:28.197Z,58.33
2022-12-27T13:48:58.342Z,58.44
2022-12-27T13:51:52.419Z,58.29
2022-12-27T13:55:23.639Z,58.47
2022-12-27T13:58:35.727Z,58.52
2022-12-27T14:01:30.738Z,58.87
2022-12-27T14:04:44.824Z,58.90
2022-12-27T14:08:14.779Z,58.88
2022-12-27T14:12:06.657Z,58.84
2022-12-27T14:15:02.777Z,58.80
2022-12-27T14:18:18.311Z,58.97
2022-12-27T14:21:24.447Z,59.09
2022-12-27T14:24:32.019Z,59.14
2022-12-27T14:28:09.933Z,59.13
2022-12-27T14:31:02.399Z,59.14
2022-12-27T14:34:16.709Z,59.31
2022-12-27T14:37:33.563Z,59.36
2022-12-27T14:41:16.548Z,59.33
2022-12-27T14:44:45.812Z,59.40
2022-12-27T14:47:59.625Z,59.46
2022-12-27T14:51:26.236Z,59.63
2022-12-27T14:55:00.798Z,59.60
2022-12-27T14:58:33.881Z,59.64
2022-12-27T15:01:50.800Z,59.86
2022-12-27T15:05:04.766Z,59.88
2022-12-27T15:08:04.975Z,59.95
2022-12-27T15:11:03.335Z,59.83
2022-12-27T15:15:21.913Z,60.03
2022-12-27T15:18:39.490Z,60.02
2022-12-27T15:21:46.267Z,60.04
2022-12-27T15:24:41.704Z,60.21
2022-12-27T15:27:49.162Z,60.48
2022-12-27T15:30:55.281Z,60.53
2022-12-27T15:34:15.217Z,60.46
2022-12-27T15:37:45.629Z,60.55
2022-12-27T15:41:03.741Z,60.67
2022-12-27T15:45:38.551Z,60.57
2022-12-27T15:49:07.973Z,60.62
2022-12-27T15:52:18.395Z,60.68
2022-12-27T15:55:16.980Z,60.82
2022-12-27T15:58:20.699Z,60.81
2022-12-27T16:02:49.469Z,61.04
2022-12-27T16:05:46.222Z,61.31
2022-12-27T16:08:40.000Z,61.42
2022-12-27T16:12:10.104Z,61.30
2022-12-27T16:15:43.920Z,61.27
2022-12-27T16:20:13.159Z,61.19
2022-12-27T16:23:07.969Z,61.30
2022-12-27T16:26:28.195Z,61.15
2022-12-27T16:29:23.815Z,61.27
2022-12-27T16:32:26.627Z,61.26
2022-12-27T16:35:15.815Z,61.30
2022-12-27T16:38:22.260Z,61.35
2022-12-27T16:41:33.005Z,61.14
2022-12-27T16:44:25.242Z,61.37
2022-12-27T16:47:26.338Z,61.31
2022-12-27T16:50:47.358Z,61.28
2022-12-27T16:54:02.907Z,61.61
2022-12-27T16:57:26.540Z,61.40
2022-12-27T17:01:58.551Z,61.53
2022-12-27T17:04:59.241Z,61.67
2022-12-27T17:08:13.228Z,61.73
2022-12-27T17:11:27.965Z,61.64
2022-12-27T17:14:30.131Z,61.67
2022-12-27T17:19:06.271Z,61.64
2022-12-27T17:22:03.140Z,61.71
2022-12-27T17:24:59.228Z,61.84
2022-12-27T17:28:16.269Z,61.83
2022-12-27T17:31:21.770Z,61.83
2022-12-27T17:36:12.487Z,61.80
2022-12-27T17:39:48.443Z,61.90
2022-12-27T17:43:19.131Z,62.01
2022-12-27T17:46:41.054Z,62.05
2022-12-27T17:49:32.462Z,62.14
2022-12-27T17:52:43.780Z,62.05
2022-12-27T17:55:54.322Z,62.23
2022-12-27T17:58:45.134Z,62.18
2022-12-27T18:01:48.009Z,62.25
2022-12-27T18:04:46.320Z,62.33
2022-12-27T18:07:38.537Z,62.29
2022-12-27T18:10:30.125Z,62.18
2022-12-27T18:13:25.166Z,62.26
2022-12-27T18:16:20.774Z,62.28
2022-12-27T18:19:18.411Z,62.38
2022-12-27T18:22:18.522Z,62.31
2022-12-27T18:25:23.821Z,62.40
2022-12-27T18:28:28.732Z,62.49
2022-12-27T18:31:22.938Z,62.58
2022-12-27T18:34:24.374Z,62.61
2022-12-27T18:39:01.816Z,62.51
2022-12-27T18:43:06.726Z,62.58
2022-12-27T18:45:58.820Z,62.52
2022-12-27T18:48:50.932Z,62.59
2022-12-27T18:51:42.918Z,62.76
2022-12-27T18:54:36.396Z,62.74
2022-12-27T18:57:41.937Z,62.80
2022-12-27T19:00:32.776Z,63.03
2022-12-27T19:03:24.801Z,62.93
2022-12-27T19:06:16.681Z,62.94
2022-12-27T19:11:52.007Z,62.95
2022-12-27T19:14:46.161Z,63.11
2022-12-27T19:17:38.629Z,63.11
2022-12-27T19:20:32.587Z,63.26
2022-12-27T19:23:36.858Z,63.34
2022-12-27T19:26:32.751Z,63.62
2022-12-27T19:29:27.991Z,64.17
2022-12-27T19:32:32.419Z,64.49
2022-12-27T19:35:24.611Z,64.27
2022-12-27T19:41:03.349Z,64.36
2022-12-27T19:43:56.523Z,64.37
2022-12-27T19:46:48.873Z,64.72
2022-12-27T19:49:45.479Z,64.46
2022-12-27T19:52:39.148Z,64.40
2022-12-27T19:55:31.082Z,64.53
2022-12-27T19:58:25.552Z,64.60
2022-12-27T20:01:17.879Z,64.65
2022-12-27T20:04:09.914Z,64.63
2022-12-27T20:07:01.993Z,64.79
2022-12-27T20:10:05.752Z,64.64
2022-12-27T20:14:09.686Z,65.01
2022-12-27T20:17:01.981Z,65.19
2022-12-27T20:19:53.929Z,65.22
2022-12-27T20:22:47.592Z,65.43
2022-12-27T20:25:42.128Z,65.25
2022-12-27T20:28:33.835Z,65.60
2022-12-27T20:31:25.604Z,65.60
2022-12-27T20:34:18.097Z,66.30
2022-12-27T20:37:10.846Z,66.19
2022-12-27T20:40:03.199Z,66.11
2022-12-27T20:44:27.145Z,65.96
2022-12-27T20:47:44.762Z,66.39
2022-12-27T20:50:37.995Z,66.08
2022-12-27T20:53:30.098Z,66.20
2022-12-27T20:56:22.423Z,66.26
2022-12-27T20:59:14.204Z,66.32
2022-12-27T21:04:43.273Z,66.53
2022-12-27T21:08:54.441Z,66.56
2022-12-27T21:11:53.063Z,66.77
2022-12-27T21:14:45.098Z,66.52
2022-12-27T21:17:37.309Z,67.12
2022-12-27T21:20:29.054Z,66.69
2022-12-27T21:26:02.941Z,66.64
2022-12-27T21:28:56.587Z,66.54
2022-12-27T21:31:48.935Z,66.59
2022-12-27T21:34:41.283Z,66.65
2022-12-27T21:37:33.296Z,66.57
2022-12-27T21:40:25.153Z,66.84
2022-12-27T21:43:20.258Z,66.79
2022-12-27T21:46:18.460Z,66.79
2022-12-27T21:49:13.639Z,66.97
2022-12-27T21:52:05.867Z,66.92
2022-12-27T21:54:57.916Z,67.58
2022-12-27T21:57:49.925Z,67.04
2022-12-27T22:00:41.742Z,67.39
2022-12-27T22:05:06.106Z,67.08
2022-12-27T22:07:57.701Z,67.21
2022-12-27T22:10:57.020Z,67.28
2022-12-27T22:13:43.882Z,67.08
2022-12-27T22:16:38.783Z,67.17
2022-12-27T22:22:06.363Z,67.27
2022-12-27T22:24:58.058Z,67.32
2022-12-27T22:27:50.115Z,67.40
2022-12-27T22:30:42.210Z,67.41
2022-12-27T22:33:35.493Z,67.52
2022-12-27T22:36:27.863Z,67.58
2022-12-27T22:39:20.237Z,67.52
2022-12-27T22:42:12.339Z,67.45
2022-12-27T22:45:04.840Z,67.50
2022-12-27T22:47:57.373Z,67.44
2022-12-27T22:50:49.394Z,67.65
2022-12-27T22:53:41.803Z,67.53
2022-12-27T22:56:36.490Z,67.56
2022-12-27T23:00:53.080Z,67.64
2022-12-27T23:03:45.269Z,67.67
2022-12-27T23:06:37.509Z,67.58
2022-12-27T23:09:29.752Z,67.60
2022-12-27T23:12:22.135Z,67.66
2022-12-27T23:15:14.067Z,67.59
2022-12-27T23:18:06.352Z,67.50
2022-12-27T23:21:21.595Z,67.58
2022-12-27T23:24:11.113Z,67.76
2022-12-27T23:27:03.458Z,67.77
2022-12-27T23:29:55.669Z,67.94
2022-12-27T23:32:47.553Z,67.88
2022-12-27T23:35:39.333Z,67.90
2022-12-27T23:40:07.631Z,67.87
2022-12-27T23:43:12.426Z,67.82
2022-12-27T23:46:17.615Z,68.12
2022-12-27T23:49:09.791Z,68.24
2022-12-27T23:52:01.991Z,68.07
2022-12-27T23:55:29.502Z,68.30
2022-12-27T23:58:49.115Z,68.27
